Terminal Aerodrome Forecast
Issued by NWS

Home | Current Version | Previous Version | Text Only | Print | Product List | Glossary On
Versions: 1 2 3 4 5 6 7 8 9 10 11 12 13 14 15 16 17 18 19 20
000
FTUS46 KPDT 061006 AAA
TAFBDN
TAF AMD
KBDN 061006Z 0610/0706 34007KT P6SM BKN009 OVC015
      TEMPO 0612/0615 SCT010 OVC018
     FM061600 34006KT P6SM SCT015 BKN250
     FM062000 35012G22KT P6SM SCT250
      TEMPO 0622/0702 -TSRA BKN050CB BKN100
     FM070400 35008KT P6SM SCT050 BKN100=

USA.gov is the U.S. government's official web portal to all federal, state and local government web resources and services.